KVTN/VTN METAR and TAF weather

Enter ICAO airport designator
Station Type Date Time Source
KVTN METAR 2019/08/24 21:52 UTC NOAA

KVTN 242152Z AUTO 16011KT 10SM OVC100 23/15 A2997 RMK AO2 SLP130 T02280150


Station Type Date Time Source
KVTN Decoded METAR 2019/08/24 21:52 UTC NOAA

Station name not available
Aug 24, 2019 - 05:52 PM EDT / 2019.08.24 2152 UTC
Wind: from the SSE (160 degrees) at 13 MPH (11 KT):0
Visibility: 10 mile(s):0
Sky conditions: overcast
Temperature: 73.0 F (22.8 C)
Dew Point: 59.0 F (15.0 C)
Relative Humidity: 61%
Pressure (altimeter): 29.97 in. Hg (1014 hPa)
ob: KVTN 242152Z AUTO 16011KT 10SM OVC100 23/15 A2997 RMK AO2 SLP130 T02280150
cycle: 22

Station Type Date Time Source
KVTN TAF 2019/08/24 18:24 UTC NOAA

TAF KVTN 241721Z 2418/2518 15009KT P6SM -RA VCSH FEW015 OVC100
FM250500 16011KT P6SM BKN017
FM251000 17008KT P6SM BKN040
FM251500 19013KT P6SM BKN014
FM251700 18014KT P6SM BKN035

Example: see airport list